createdAt,value
2022-12-31T00:00:27.480Z,94.80
2022-12-31T00:02:32.540Z,94.60
2022-12-31T00:04:37.542Z,94.60
2022-12-31T00:06:42.729Z,94.60
2022-12-31T00:08:51.563Z,94.60
2022-12-31T00:10:56.519Z,94.30
2022-12-31T00:13:01.485Z,94.50
2022-12-31T00:15:06.867Z,94.70
2022-12-31T00:17:12.910Z,94.50
2022-12-31T00:19:17.837Z,94.30
2022-12-31T00:21:24.611Z,94.20
2022-12-31T00:23:30.048Z,94.40
2022-12-31T00:25:38.755Z,94.00
2022-12-31T00:27:43.660Z,93.90
2022-12-31T00:29:48.598Z,94.00
2022-12-31T00:31:53.512Z,93.80
2022-12-31T00:33:58.788Z,93.60
2022-12-31T00:36:13.231Z,93.40
2022-12-31T00:38:18.160Z,93.50
2022-12-31T00:40:23.215Z,93.40
2022-12-31T00:42:30.696Z,92.90
2022-12-31T00:44:35.625Z,93.00
2022-12-31T00:48:44.968Z,93.00
2022-12-31T00:50:50.014Z,93.10
2022-12-31T00:52:54.933Z,93.30
2022-12-31T00:55:00.288Z,93.00
2022-12-31T00:57:05.264Z,93.00
2022-12-31T00:59:12.791Z,93.50
2022-12-31T01:01:21.243Z,93.50
2022-12-31T01:03:26.753Z,93.60
2022-12-31T01:05:33.877Z,93.50
2022-12-31T01:07:40.765Z,93.00
2022-12-31T01:09:45.986Z,92.90
2022-12-31T01:11:53.448Z,93.30
2022-12-31T01:14:01.328Z,93.40
2022-12-31T01:16:17.138Z,93.40
2022-12-31T01:18:22.103Z,92.80
2022-12-31T01:20:26.994Z,92.90
2022-12-31T01:22:31.893Z,93.50
2022-12-31T01:24:36.823Z,94.10
2022-12-31T01:26:42.540Z,94.40
2022-12-31T01:28:48.118Z,94.90
2022-12-31T01:30:53.094Z,95.10
2022-12-31T01:33:01.207Z,94.50
2022-12-31T01:35:06.528Z,94.50
2022-12-31T01:37:11.443Z,94.40
2022-12-31T01:39:16.552Z,94.20
2022-12-31T01:41:24.728Z,94.30
2022-12-31T01:43:50.191Z,94.30
2022-12-31T01:45:57.107Z,94.40
2022-12-31T01:48:04.732Z,94.50
2022-12-31T01:50:18.540Z,94.80
2022-12-31T01:52:30.376Z,95.00
2022-12-31T01:54:41.991Z,95.40
2022-12-31T01:56:49.009Z,95.70
2022-12-31T01:58:58.113Z,95.80
2022-12-31T02:01:03.349Z,95.80
2022-12-31T02:03:11.804Z,95.70
2022-12-31T02:05:25.920Z,95.80
2022-12-31T02:07:30.941Z,95.70
2022-12-31T02:09:38.614Z,95.70
2022-12-31T02:11:43.540Z,95.60
2022-12-31T02:13:51.534Z,95.70
2022-12-31T02:16:09.818Z,95.60
2022-12-31T02:18:32.124Z,95.30
2022-12-31T02:21:10.095Z,95.40
2022-12-31T02:24:10.709Z,94.80
2022-12-31T02:26:58.604Z,94.60
2022-12-31T02:29:41.858Z,94.40
2022-12-31T02:31:57.725Z,94.40
2022-12-31T02:34:09.666Z,94.00
2022-12-31T02:36:21.276Z,94.50
2022-12-31T02:38:31.227Z,93.90
2022-12-31T02:40:39.894Z,94.00
2022-12-31T02:42:48.609Z,93.90
2022-12-31T02:44:56.523Z,93.70
2022-12-31T02:47:22.863Z,93.90
2022-12-31T02:49:36.414Z,93.50
2022-12-31T02:51:53.068Z,93.40
2022-12-31T02:54:18.794Z,93.00
2022-12-31T02:56:30.511Z,92.70
2022-12-31T02:58:57.376Z,92.80
2022-12-31T03:01:15.675Z,92.80
2022-12-31T03:03:24.338Z,92.40
2022-12-31T03:05:34.935Z,92.30
2022-12-31T03:07:42.330Z,91.90
2022-12-31T03:09:47.354Z,91.90
2022-12-31T03:12:19.507Z,92.00
2022-12-31T03:14:24.435Z,91.20
2022-12-31T03:16:29.365Z,90.90
2022-12-31T03:18:59.756Z,91.40
2022-12-31T03:21:17.178Z,91.40
2022-12-31T03:23:26.450Z,90.60
2022-12-31T03:25:36.327Z,90.90
2022-12-31T03:27:42.474Z,91.20
2022-12-31T03:29:48.805Z,91.20
2022-12-31T03:31:54.063Z,91.00
2022-12-31T03:34:01.585Z,90.60
2022-12-31T03:36:08.686Z,90.60
2022-12-31T03:38:14.571Z,90.20
2022-12-31T03:40:22.118Z,90.30
2022-12-31T03:42:27.100Z,90.10
2022-12-31T03:44:32.028Z,90.10
2022-12-31T03:46:36.966Z,90.20
2022-12-31T03:48:41.871Z,90.50
2022-12-31T03:50:49.527Z,90.20
2022-12-31T03:52:54.455Z,89.70
2022-12-31T03:54:59.452Z,90.30
2022-12-31T03:57:04.363Z,90.60
2022-12-31T03:59:09.338Z,90.20
2022-12-31T04:01:14.517Z,90.10
2022-12-31T04:03:19.611Z,90.30
2022-12-31T04:05:25.521Z,90.00
2022-12-31T04:07:33.085Z,89.30
2022-12-31T04:09:38.023Z,89.80
2022-12-31T04:11:43.091Z,89.70
2022-12-31T04:13:48.019Z,89.60
2022-12-31T04:15:54.418Z,89.70
2022-12-31T04:17:59.367Z,89.70
2022-12-31T04:20:04.326Z,89.50
2022-12-31T04:22:09.791Z,89.90
2022-12-31T04:24:17.333Z,89.70
2022-12-31T04:26:22.511Z,89.40
2022-12-31T04:28:27.798Z,89.60
2022-12-31T04:30:32.836Z,88.50
2022-12-31T04:32:37.993Z,89.00
2022-12-31T04:34:42.979Z,88.80
2022-12-31T04:36:48.201Z,88.90
2022-12-31T04:38:53.226Z,88.80
2022-12-31T04:41:13.425Z,88.70
2022-12-31T04:43:18.670Z,89.10
2022-12-31T04:45:23.845Z,89.50
2022-12-31T04:47:28.766Z,89.00
2022-12-31T04:49:33.954Z,89.00
2022-12-31T04:51:40.424Z,89.30
2022-12-31T04:53:46.323Z,89.60
2022-12-31T04:55:51.327Z,89.70
2022-12-31T04:57:58.819Z,89.50
2022-12-31T05:00:03.938Z,89.40
2022-12-31T05:02:09.603Z,89.10
2022-12-31T05:04:14.691Z,89.50
2022-12-31T05:06:22.993Z,89.30
2022-12-31T05:08:27.971Z,89.00
2022-12-31T05:10:32.876Z,89.20
2022-12-31T05:12:38.527Z,89.00
2022-12-31T05:14:46.041Z,89.30
2022-12-31T05:16:51.404Z,89.20
2022-12-31T05:18:56.392Z,89.00
2022-12-31T05:21:01.676Z,89.70
2022-12-31T05:23:06.893Z,89.70
2022-12-31T05:25:12.569Z,89.70
2022-12-31T05:27:18.018Z,89.90
2022-12-31T05:29:22.961Z,89.00
2022-12-31T05:31:30.731Z,88.90
2022-12-31T05:33:35.680Z,88.70
2022-12-31T05:35:40.844Z,89.00
2022-12-31T05:37:46.285Z,88.60
2022-12-31T05:39:51.797Z,88.60
2022-12-31T05:41:57.053Z,88.70
2022-12-31T05:44:02.411Z,88.90
2022-12-31T05:46:08.839Z,88.70
2022-12-31T05:48:16.395Z,88.80
2022-12-31T05:50:21.861Z,88.60
2022-12-31T05:52:33.689Z,88.40
2022-12-31T05:54:39.280Z,88.30
2022-12-31T05:56:44.869Z,87.60
2022-12-31T05:58:49.766Z,87.90
2022-12-31T06:00:55.159Z,87.90
2022-12-31T06:03:00.213Z,87.90
2022-12-31T06:05:08.953Z,88.10
2022-12-31T06:07:14.075Z,87.50
2022-12-31T06:09:20.067Z,87.60
2022-12-31T06:11:25.028Z,86.90
2022-12-31T06:13:29.953Z,87.70
2022-12-31T06:15:35.388Z,87.60
2022-12-31T06:17:41.064Z,87.50
2022-12-31T06:19:45.990Z,87.50
2022-12-31T06:21:53.638Z,87.60
2022-12-31T06:23:59.279Z,87.80
2022-12-31T06:26:05.090Z,87.80
2022-12-31T06:28:16.080Z,87.80
2022-12-31T06:30:24.943Z,87.60
2022-12-31T06:32:29.890Z,87.60
2022-12-31T06:34:35.310Z,87.90
2022-12-31T06:36:40.354Z,87.80
2022-12-31T06:38:48.150Z,87.50
2022-12-31T06:40:53.412Z,87.50
2022-12-31T06:43:02.143Z,87.50
2022-12-31T06:45:08.886Z,87.20
2022-12-31T06:47:14.081Z,87.30
2022-12-31T06:49:19.259Z,87.10
2022-12-31T06:51:25.233Z,86.60
2022-12-31T06:53:30.175Z,87.30
2022-12-31T06:55:41.843Z,87.00
2022-12-31T06:57:48.271Z,87.60
2022-12-31T06:59:54.291Z,87.20
2022-12-31T07:02:17.317Z,87.00
2022-12-31T07:05:00.440Z,86.60
2022-12-31T07:07:18.003Z,86.80
2022-12-31T07:09:32.954Z,86.30
2022-12-31T07:11:49.769Z,86.60
2022-12-31T07:14:14.578Z,86.90
2022-12-31T07:16:43.815Z,86.60
2022-12-31T07:18:53.883Z,86.80
2022-12-31T07:21:00.098Z,86.60
2022-12-31T07:23:10.269Z,86.60
2022-12-31T07:25:18.910Z,86.40
2022-12-31T07:27:50.077Z,86.60
2022-12-31T07:30:07.532Z,86.20
2022-12-31T07:32:30.427Z,86.10
2022-12-31T07:34:44.768Z,85.80
2022-12-31T07:37:03.982Z,85.80
2022-12-31T07:39:16.109Z,85.90
2022-12-31T07:41:39.633Z,86.00
2022-12-31T07:44:04.020Z,86.00
2022-12-31T07:46:19.293Z,85.60
2022-12-31T07:48:30.201Z,85.40
2022-12-31T07:50:36.207Z,85.60
2022-12-31T07:52:42.678Z,85.80
2022-12-31T07:54:48.029Z,85.60
2022-12-31T07:56:54.051Z,85.60
2022-12-31T07:59:24.592Z,85.60
2022-12-31T08:01:42.077Z,86.00
2022-12-31T08:03:58.014Z,85.80
2022-12-31T08:06:14.125Z,85.70
2022-12-31T08:08:31.689Z,85.80
2022-12-31T08:10:46.946Z,85.60
2022-12-31T08:12:53.120Z,85.50
2022-12-31T08:15:01.749Z,85.80
2022-12-31T08:17:07.516Z,85.50
2022-12-31T08:19:23.503Z,85.70
2022-12-31T08:21:49.023Z,85.70
2022-12-31T08:24:06.649Z,84.80
2022-12-31T08:26:26.677Z,85.30
2022-12-31T08:28:49.452Z,85.00
2022-12-31T08:31:10.225Z,84.70
2022-12-31T08:33:24.248Z,85.20
2022-12-31T08:35:44.192Z,84.30
2022-12-31T08:37:58.548Z,84.90
2022-12-31T08:40:20.868Z,85.00
2022-12-31T08:42:37.091Z,84.60
2022-12-31T08:44:51.446Z,84.80
2022-12-31T08:47:08.694Z,84.80
2022-12-31T08:49:18.030Z,85.00
2022-12-31T08:51:26.492Z,84.50
2022-12-31T08:53:32.353Z,84.90
2022-12-31T08:55:38.725Z,84.40
2022-12-31T08:57:52.216Z,84.40
2022-12-31T09:00:07.977Z,84.10
2022-12-31T09:02:48.391Z,84.30
2022-12-31T09:05:06.878Z,84.20
2022-12-31T09:07:12.903Z,84.20
2022-12-31T09:09:28.284Z,83.70
2022-12-31T09:11:50.765Z,84.00
2022-12-31T09:14:19.271Z,83.20
2022-12-31T09:16:35.998Z,83.70
2022-12-31T09:18:46.027Z,83.80
2022-12-31T09:20:51.668Z,83.40
2022-12-31T09:22:58.626Z,83.40
2022-12-31T09:25:04.525Z,83.20
2022-12-31T09:27:27.296Z,83.30
2022-12-31T09:29:52.134Z,82.90
2022-12-31T09:32:07.620Z,82.90
2022-12-31T09:34:23.491Z,83.50
2022-12-31T09:36:34.395Z,83.50
2022-12-31T09:38:53.026Z,83.80
2022-12-31T09:44:17.995Z,83.60
2022-12-31T09:47:17.328Z,83.40
2022-12-31T09:50:08.677Z,83.30
2022-12-31T09:52:26.835Z,83.40
2022-12-31T09:54:50.870Z,83.50
2022-12-31T09:57:20.872Z,83.50
2022-12-31T09:59:33.176Z,83.20
2022-12-31T10:01:53.243Z,83.50
2022-12-31T10:04:31.270Z,82.60
2022-12-31T10:06:53.429Z,82.90
2022-12-31T10:09:38.809Z,82.30
2022-12-31T10:12:21.473Z,82.20
2022-12-31T10:14:47.696Z,82.80
2022-12-31T10:17:08.307Z,82.50
2022-12-31T10:19:53.746Z,82.50
2022-12-31T10:22:16.973Z,82.20
2022-12-31T10:24:46.422Z,82.40
2022-12-31T10:27:10.244Z,82.30
2022-12-31T10:29:43.629Z,82.70
2022-12-31T10:32:03.444Z,81.80
2022-12-31T10:34:18.934Z,81.80
2022-12-31T10:36:33.368Z,81.90
2022-12-31T10:38:58.918Z,82.10
2022-12-31T10:41:49.198Z,81.60
2022-12-31T10:44:36.818Z,82.00
2022-12-31T10:47:33.233Z,81.70
2022-12-31T10:50:38.293Z,81.50
2022-12-31T10:53:31.914Z,81.40
2022-12-31T10:56:31.216Z,80.90
2022-12-31T10:59:03.549Z,80.80
2022-12-31T11:01:16.269Z,80.40
2022-12-31T11:04:22.472Z,80.20
2022-12-31T11:07:29.749Z,80.20
2022-12-31T11:10:49.498Z,79.40
2022-12-31T11:13:34.392Z,79.30
2022-12-31T11:16:08.729Z,79.60
2022-12-31T11:18:26.035Z,78.80
2022-12-31T11:20:50.699Z,78.80
2022-12-31T11:23:10.994Z,78.90
2022-12-31T11:25:32.000Z,78.90
2022-12-31T11:27:59.765Z,78.80
2022-12-31T11:30:24.321Z,78.60
2022-12-31T11:32:50.562Z,77.90
2022-12-31T11:35:20.617Z,78.30
2022-12-31T11:37:39.709Z,78.20
2022-12-31T11:39:55.710Z,77.90
2022-12-31T11:42:13.229Z,78.50
2022-12-31T11:44:37.080Z,79.00
2022-12-31T11:47:05.753Z,78.20
2022-12-31T11:49:27.333Z,78.90
2022-12-31T11:51:55.069Z,79.30
2022-12-31T11:54:41.754Z,79.20
2022-12-31T11:56:55.791Z,79.00
2022-12-31T11:59:06.160Z,79.00
2022-12-31T12:01:21.456Z,78.80
2022-12-31T12:03:30.054Z,79.30
2022-12-31T12:05:38.392Z,79.30
2022-12-31T12:07:43.308Z,79.00
2022-12-31T12:09:49.466Z,79.50
2022-12-31T12:12:02.918Z,79.10
2022-12-31T12:14:23.686Z,79.70
2022-12-31T12:16:31.306Z,78.40
2022-12-31T12:18:46.984Z,78.70
2022-12-31T12:20:51.962Z,78.70
2022-12-31T12:22:59.903Z,78.10
2022-12-31T12:25:10.235Z,78.40
2022-12-31T12:27:27.219Z,78.60
2022-12-31T12:29:36.484Z,77.80
2022-12-31T12:31:42.562Z,77.50
2022-12-31T12:33:53.295Z,78.30
2022-12-31T12:36:10.649Z,77.80
2022-12-31T12:38:19.672Z,78.50
2022-12-31T12:40:33.650Z,78.00
2022-12-31T12:42:50.466Z,77.90
2022-12-31T12:45:05.727Z,77.40
2022-12-31T12:47:17.481Z,76.90
2022-12-31T12:49:28.929Z,77.20
2022-12-31T12:51:55.137Z,77.30
2022-12-31T12:54:14.556Z,77.30
2022-12-31T12:56:33.228Z,77.20
2022-12-31T12:58:55.747Z,78.00
2022-12-31T13:01:12.430Z,78.10
2022-12-31T13:07:00.967Z,77.20
2022-12-31T13:09:23.430Z,76.90
2022-12-31T13:11:40.595Z,76.80
2022-12-31T13:14:00.102Z,76.90
2022-12-31T13:16:13.358Z,77.60
2022-12-31T13:18:25.593Z,78.10
2022-12-31T13:20:38.042Z,77.40
2022-12-31T13:22:51.236Z,77.40
2022-12-31T13:25:01.778Z,76.80
2022-12-31T13:27:20.111Z,77.60
2022-12-31T13:29:31.479Z,77.40
2022-12-31T13:31:40.459Z,77.40
2022-12-31T13:33:50.136Z,75.90
2022-12-31T13:35:59.453Z,75.20
2022-12-31T13:38:14.447Z,74.30
2022-12-31T13:40:28.326Z,74.20
2022-12-31T13:42:45.115Z,73.60
2022-12-31T13:44:57.785Z,73.30
2022-12-31T13:47:09.650Z,74.20
2022-12-31T13:49:21.820Z,73.00
2022-12-31T13:51:42.773Z,72.90
2022-12-31T13:54:00.266Z,73.30
2022-12-31T13:56:12.207Z,73.30
2022-12-31T13:58:26.344Z,73.40
2022-12-31T14:00:39.837Z,74.40
2022-12-31T14:02:54.151Z,74.40
2022-12-31T14:05:05.743Z,74.40
2022-12-31T14:07:16.803Z,74.10
2022-12-31T14:09:27.906Z,74.30
2022-12-31T14:11:56.738Z,74.70
2022-12-31T14:14:18.251Z,75.00
2022-12-31T14:16:35.775Z,75.50
2022-12-31T14:18:50.060Z,75.40
2022-12-31T14:21:08.042Z,75.40
2022-12-31T14:23:26.424Z,75.20
2022-12-31T14:25:40.977Z,76.00
2022-12-31T14:27:47.826Z,76.20
2022-12-31T14:29:59.609Z,76.30
2022-12-31T14:32:44.721Z,76.70
2022-12-31T14:35:01.186Z,76.80
2022-12-31T14:37:17.265Z,77.00
2022-12-31T14:39:37.008Z,76.80
2022-12-31T14:42:00.691Z,77.40
2022-12-31T14:44:25.414Z,77.30
2022-12-31T14:46:45.890Z,78.00
2022-12-31T14:49:05.183Z,77.00
2022-12-31T14:51:10.966Z,77.50
2022-12-31T14:53:26.129Z,77.80
2022-12-31T14:55:34.129Z,78.10
2022-12-31T14:58:25.976Z,78.10
2022-12-31T15:00:30.871Z,78.60
2022-12-31T15:02:37.739Z,78.30
2022-12-31T15:04:48.596Z,78.30
2022-12-31T15:07:06.169Z,78.30
2022-12-31T15:09:25.214Z,78.20
2022-12-31T15:12:00.107Z,78.90
2022-12-31T15:14:42.010Z,79.00
2022-12-31T15:16:59.157Z,78.50
2022-12-31T15:19:58.951Z,78.50
2022-12-31T15:22:29.577Z,79.10
2022-12-31T15:24:35.055Z,79.30
2022-12-31T15:26:40.748Z,79.40
2022-12-31T15:28:45.689Z,79.60
2022-12-31T15:30:54.668Z,79.80
2022-12-31T15:33:04.534Z,80.30
2022-12-31T15:35:31.710Z,80.00
2022-12-31T15:37:38.706Z,80.30
2022-12-31T15:39:45.981Z,80.40
2022-12-31T15:42:36.240Z,80.70
2022-12-31T15:44:27.253Z,80.50
2022-12-31T15:46:40.339Z,80.60
2022-12-31T15:48:52.639Z,80.80
2022-12-31T15:51:02.960Z,81.30
2022-12-31T15:53:09.617Z,81.40
2022-12-31T15:55:28.378Z,81.40
2022-12-31T15:57:36.418Z,81.00
2022-12-31T15:59:42.394Z,81.20
2022-12-31T16:01:51.084Z,80.80
2022-12-31T16:04:01.113Z,80.90
2022-12-31T16:06:13.550Z,81.10
2022-12-31T16:08:24.119Z,81.50
2022-12-31T16:10:32.803Z,80.40
2022-12-31T16:12:44.829Z,80.20
2022-12-31T16:14:56.623Z,79.90
2022-12-31T16:17:04.936Z,79.90
2022-12-31T16:19:37.419Z,79.60
2022-12-31T16:21:42.549Z,79.60
2022-12-31T16:23:53.323Z,79.60
2022-12-31T16:26:02.582Z,79.40
2022-12-31T16:28:07.944Z,79.50
2022-12-31T16:30:24.070Z,79.80
2022-12-31T16:32:39.790Z,79.80
2022-12-31T16:34:45.122Z,79.70
2022-12-31T16:36:59.122Z,80.00
2022-12-31T16:39:26.980Z,80.00
2022-12-31T16:41:45.286Z,79.80
2022-12-31T16:43:52.030Z,79.70
2022-12-31T16:46:00.775Z,79.80
2022-12-31T16:48:16.788Z,80.30
2022-12-31T16:50:25.991Z,79.90
2022-12-31T16:52:35.391Z,79.90
2022-12-31T16:54:46.824Z,79.90
2022-12-31T16:56:51.936Z,80.10
2022-12-31T16:59:04.694Z,80.10
2022-12-31T17:01:19.793Z,80.20
2022-12-31T17:03:29.819Z,79.90
2022-12-31T17:05:36.222Z,79.80
2022-12-31T17:07:45.236Z,80.10
2022-12-31T17:09:50.235Z,80.20
2022-12-31T17:11:57.758Z,80.80
2022-12-31T17:14:15.449Z,80.80
2022-12-31T17:16:21.067Z,81.10
2022-12-31T17:18:35.691Z,80.80
2022-12-31T17:20:40.606Z,80.70
2022-12-31T17:22:46.968Z,80.90
2022-12-31T17:24:52.663Z,80.90
2022-12-31T17:26:58.064Z,81.50
2022-12-31T17:29:05.968Z,81.00
2022-12-31T17:31:32.041Z,80.80
2022-12-31T17:33:39.657Z,81.00
2022-12-31T17:35:46.602Z,81.30
2022-12-31T17:37:51.502Z,81.60
2022-12-31T17:40:32.317Z,81.80
2022-12-31T17:42:31.992Z,81.50
2022-12-31T17:44:41.176Z,81.00
2022-12-31T17:46:46.945Z,80.60
2022-12-31T17:49:00.391Z,80.80
2022-12-31T17:51:05.422Z,81.10
2022-12-31T17:53:15.209Z,80.50
2022-12-31T17:55:20.165Z,80.60
2022-12-31T17:57:30.462Z,80.50
2022-12-31T17:59:37.787Z,79.60
2022-12-31T18:01:42.832Z,79.40
2022-12-31T18:03:51.352Z,80.00
2022-12-31T18:05:58.983Z,80.20
2022-12-31T18:08:03.882Z,80.20
2022-12-31T18:10:09.890Z,79.50
2022-12-31T18:12:18.043Z,79.50
2022-12-31T18:14:22.970Z,79.40
2022-12-31T18:16:28.087Z,79.00
2022-12-31T18:18:39.897Z,78.10
2022-12-31T18:20:44.895Z,77.70
2022-12-31T18:22:52.952Z,77.30
2022-12-31T18:24:57.860Z,77.20
2022-12-31T18:27:04.177Z,77.80
2022-12-31T18:29:19.503Z,77.80
2022-12-31T18:31:27.809Z,77.90
2022-12-31T18:33:32.774Z,78.30
2022-12-31T18:36:07.730Z,78.20
2022-12-31T18:38:05.204Z,78.20
2022-12-31T18:40:12.472Z,78.50
2022-12-31T18:42:21.652Z,78.30
2022-12-31T18:44:26.552Z,78.40
2022-12-31T18:46:31.593Z,78.40
2022-12-31T18:48:38.284Z,78.30
2022-12-31T18:50:43.708Z,78.60
2022-12-31T18:52:48.616Z,78.90
2022-12-31T18:54:57.711Z,79.80
2022-12-31T18:57:04.417Z,79.30
2022-12-31T18:59:09.411Z,79.80
2022-12-31T19:01:31.968Z,80.30
2022-12-31T19:03:36.953Z,79.90
2022-12-31T19:05:42.902Z,79.10
2022-12-31T19:07:47.782Z,79.00
2022-12-31T19:09:58.161Z,78.80
2022-12-31T19:12:06.832Z,78.70
2022-12-31T19:14:18.623Z,78.50
2022-12-31T19:16:24.883Z,77.70
2022-12-31T19:18:31.446Z,77.20
2022-12-31T19:20:36.369Z,76.10
2022-12-31T19:22:41.258Z,75.40
2022-12-31T19:24:47.139Z,75.20
2022-12-31T19:26:52.600Z,74.50
2022-12-31T19:29:00.098Z,73.80
2022-12-31T19:31:05.274Z,73.20
2022-12-31T19:33:10.172Z,72.80
2022-12-31T19:35:17.191Z,72.80
2022-12-31T19:37:22.069Z,71.90
2022-12-31T19:39:26.932Z,72.20
2022-12-31T19:41:31.831Z,71.90
2022-12-31T19:43:36.762Z,72.50
2022-12-31T19:45:46.259Z,71.10
2022-12-31T19:47:52.246Z,70.00
2022-12-31T19:49:57.694Z,69.80
2022-12-31T19:52:02.694Z,71.10
2022-12-31T19:54:08.506Z,71.20
2022-12-31T19:56:19.625Z,70.80
2022-12-31T19:58:27.290Z,70.00
2022-12-31T20:00:32.203Z,70.40
2022-12-31T20:02:41.437Z,70.50
2022-12-31T20:04:46.647Z,70.80
2022-12-31T20:06:51.536Z,70.70
2022-12-31T20:08:56.450Z,71.10
2022-12-31T20:11:01.557Z,71.20
2022-12-31T20:13:07.055Z,70.40
2022-12-31T20:15:13.131Z,70.40
2022-12-31T20:17:18.181Z,70.60
2022-12-31T20:19:25.666Z,70.80
2022-12-31T20:21:32.178Z,70.10
2022-12-31T20:23:37.406Z,71.10
2022-12-31T20:25:42.340Z,71.00
2022-12-31T20:27:47.247Z,70.80
2022-12-31T20:29:52.934Z,70.90
2022-12-31T20:31:57.943Z,70.90
2022-12-31T20:34:03.009Z,70.80
2022-12-31T20:36:14.670Z,71.60
2022-12-31T20:38:19.703Z,71.90
2022-12-31T20:40:24.607Z,71.70
2022-12-31T20:42:29.783Z,72.00
2022-12-31T20:44:34.824Z,71.70
2022-12-31T20:46:39.850Z,72.30
2022-12-31T20:48:44.960Z,73.20
2022-12-31T20:50:58.121Z,74.00
2022-12-31T20:53:05.717Z,73.20
2022-12-31T20:55:13.817Z,72.50
2022-12-31T20:57:18.717Z,71.80
2022-12-31T20:59:24.211Z,71.80
2022-12-31T21:01:55.183Z,72.00
2022-12-31T21:04:05.907Z,71.40
2022-12-31T21:06:12.549Z,71.10
2022-12-31T21:08:20.212Z,70.20
2022-12-31T21:10:25.493Z,71.20
2022-12-31T21:12:42.888Z,70.60
2022-12-31T21:14:48.051Z,70.00
2022-12-31T21:16:54.034Z,68.10
2022-12-31T21:18:59.282Z,68.10
2022-12-31T21:21:04.457Z,69.20
2022-12-31T21:23:09.388Z,69.80
2022-12-31T21:25:16.979Z,68.30
2022-12-31T21:27:21.926Z,68.00
2022-12-31T21:29:31.236Z,68.30
2022-12-31T21:31:39.144Z,68.10
2022-12-31T21:33:47.843Z,68.00
2022-12-31T21:35:54.587Z,68.00
2022-12-31T21:38:04.241Z,68.10
2022-12-31T21:40:10.464Z,68.80
2022-12-31T21:42:17.966Z,68.50
2022-12-31T21:44:25.425Z,69.10
2022-12-31T21:46:30.404Z,68.60
2022-12-31T21:48:34.100Z,69.10
2022-12-31T21:50:39.403Z,69.10
2022-12-31T21:52:44.713Z,69.50
2022-12-31T21:55:02.679Z,69.60
2022-12-31T21:57:08.419Z,70.10
2022-12-31T21:59:28.389Z,70.90
2022-12-31T22:01:46.282Z,71.20
2022-12-31T22:03:51.738Z,71.90
2022-12-31T22:06:01.251Z,72.40
2022-12-31T22:08:06.772Z,72.80
2022-12-31T22:10:12.392Z,73.00
2022-12-31T22:12:17.291Z,72.70
2022-12-31T22:14:25.134Z,74.50
2022-12-31T22:16:30.630Z,74.20
2022-12-31T22:18:38.814Z,74.10
2022-12-31T22:20:44.518Z,73.70
2022-12-31T22:22:49.720Z,73.50
2022-12-31T22:24:54.624Z,73.20
2022-12-31T22:27:00.462Z,72.60
2022-12-31T22:29:27.974Z,72.80
2022-12-31T22:31:33.202Z,72.10
2022-12-31T22:33:38.259Z,72.10
2022-12-31T22:35:43.505Z,72.40
2022-12-31T22:37:58.095Z,73.20
2022-12-31T22:40:07.894Z,73.80
2022-12-31T22:42:13.204Z,74.90
2022-12-31T22:44:18.970Z,75.60
2022-12-31T22:46:29.108Z,75.30
2022-12-31T22:48:34.171Z,75.40
2022-12-31T22:50:39.079Z,75.70
2022-12-31T22:52:44.006Z,75.70
2022-12-31T22:54:48.912Z,74.80
2022-12-31T22:56:53.829Z,74.60
2022-12-31T22:58:58.785Z,74.90
2022-12-31T23:01:06.306Z,75.50
2022-12-31T23:03:14.053Z,75.70
2022-12-31T23:05:19.276Z,74.40
2022-12-31T23:07:24.170Z,74.40
2022-12-31T23:09:41.712Z,74.30
2022-12-31T23:11:47.098Z,75.00
2022-12-31T23:14:04.523Z,75.30
2022-12-31T23:16:23.372Z,75.10
2022-12-31T23:18:43.370Z,75.60
2022-12-31T23:21:00.784Z,74.90
2022-12-31T23:23:11.848Z,74.40
2022-12-31T23:25:16.933Z,74.60
2022-12-31T23:27:22.261Z,75.10
2022-12-31T23:29:28.158Z,75.10
2022-12-31T23:31:33.173Z,75.40
2022-12-31T23:33:41.496Z,75.10
2022-12-31T23:35:46.501Z,75.40
2022-12-31T23:37:51.979Z,75.10
2022-12-31T23:39:56.871Z,75.10
2022-12-31T23:42:02.552Z,75.90
2022-12-31T23:44:07.986Z,75.60
2022-12-31T23:46:14.249Z,74.30
2022-12-31T23:48:19.154Z,73.90
2022-12-31T23:50:27.362Z,74.90
2022-12-31T23:52:32.298Z,75.00
2022-12-31T23:54:37.498Z,75.30
2022-12-31T23:56:42.758Z,75.40
2022-12-31T23:58:47.716Z,75.20
